Latest Weather Observations for Smithville

IDN60801

Issued at 3:52 pm EST Wednesday 20 June 2018 (issued every 10 minutes, with the page automatically refreshed every 10 minutes)

About weather observations | Map of weather stations | Latest weather observations for NSW | Other Formats
Station Details ID: 046142 Name: SMITHVILLE AWS Lat: -30.07 Lon: 141.01 Height: 94.0 m
Data from the previous 72 hours. | See also: Recent months at Smithville
Date/Time
EST
Temp
°C
App
Temp
°C
Dew
Point
°C
Rel
Hum
%
Delta-T
°C
Wind Press
QNH
hPa
Press
MSL
hPa
Rain since
9am
mm
Dir  Spd
km/h
Gust
km/h
Spd
kts
Gust
kts
20/03:30pm 15.9 - -1.6 30 7.2 - - - - - - - 0.0
20/03:00pm 16.0 - -1.5 30 7.3 - - - - - - - 0.0
20/02:30pm 15.8 - -1.3 31 7.1 - - - - - - - 0.0
20/02:00pm 15.7 - -1.4 31 7.1 - - - - - - - 0.0
20/01:30pm 15.6 - -1.4 31 7.0 - - - - - - - 0.0
20/01:00pm 16.0 - -1.1 31 7.2 - - - - - - - 0.0
20/12:30pm 14.6 - -1.5 33 6.6 - - - - - - - 0.0
20/12:00pm 14.0 - -0.8 36 6.1 - - - - - - - 0.0
20/11:30am 12.8 - -0.8 39 5.5 - - - - - - - 0.0
20/11:00am 11.1 - -0.4 45 4.7 - - - - - - - 0.0
20/10:30am 10.0 - -0.5 48 4.2 - - - - - - - 0.0
20/10:00am 9.0 - -0.9 50 3.9 - - - - - - - 0.0
20/09:30am 8.3 - -1.2 51 3.7 - - - - - - - 0.0
20/09:00am 7.5 - -1.2 54 3.3 - - - - - - - 0.0
20/08:30am 6.2 - -1.9 56 3.0 - - - - - - - 0.0
20/08:00am 5.6 - -2.0 58 2.8 - - - - - - - 0.0
20/07:30am 5.5 - -2.3 57 2.8 - - - - - - - 0.0
20/07:00am 6.0 - -1.9 57 2.9 - - - - - - - 0.0
20/06:30am 6.2 - -1.9 56 3.0 - - - - - - - 0.0
20/06:00am 6.1 - -2.0 56 3.0 - - - - - - - 0.0
20/05:30am 6.1 - -2.2 55 3.0 - - - - - - - 0.0
20/05:00am 6.1 - -2.2 55 3.0 - - - - - - - 0.0
20/04:30am 5.9 - -2.4 55 3.0 - - - - - - - 0.0
20/04:00am 6.6 - -2.3 53 3.3 - - - - - - - 0.0
20/03:30am 7.0 - -1.9 53 3.3 - - - - - - - 0.0
20/03:00am 7.7 - -1.8 51 3.6 - - - - - - - 0.0
20/02:30am 7.6 - -1.9 51 3.6 - - - - - - - 0.0
20/02:00am 7.0 - -2.2 52 3.4 - - - - - - - 0.0
20/01:30am 6.9 - -2.3 52 3.4 - - - - - - - 0.0
20/01:00am 7.6 - -1.6 52 3.5 - - - - - - - 0.0
20/12:30am 7.9 - -1.6 51 3.6 - - - - - - - 0.0
20/12:00am 7.6 - -1.9 51 3.6 - - - - - - - 0.0
 
Date/Time
EST
Temp
°C
App
Temp
°C
Dew
Point
°C
Rel
Hum
%
Delta-T
°C
Wind Press
QNH
hPa
Press
MSL
hPa
Rain since
9am
mm
Dir  Spd
km/h
Gust
km/h
Spd
kts
Gust
kts
19/11:30pm 8.2 - -1.3 51 3.6 - - - - - - - 0.0
19/11:00pm 8.4 - -1.4 50 3.8 - - - - - - - 0.0
19/10:30pm 8.0 - -1.5 51 3.6 - - - - - - - 0.0
19/10:00pm 8.7 - -1.4 49 3.9 - - - - - - - 0.0
19/09:30pm 9.0 - -1.1 49 3.9 - - - - - - - 0.0
19/09:00pm 9.4 - -1.3 47 4.2 - - - - - - - 0.0
19/08:30pm 9.9 - -1.5 45 4.4 - - - - - - - 0.0
19/08:00pm 9.8 - -1.9 44 4.5 - - - - - - - 0.0
19/07:30pm 9.8 - -2.2 43 4.6 - - - - - - - 0.0
19/07:00pm 10.6 - -1.4 43 4.7 - - - - - - - 0.0
19/06:30pm 11.6 - -1.9 39 5.3 - - - - - - - 0.0
19/06:00pm 12.4 - -1.5 38 5.6 - - - - - - - 0.0
19/05:30pm 14.1 - -1.1 35 6.2 - - - - - - - 0.0
19/05:00pm 14.5 - -1.2 34 6.5 - - - - - - - 0.0
19/04:30pm 15.2 - -0.9 33 6.7 - - - - - - - 0.0
19/04:00pm 15.6 - -0.6 33 6.8 - - - - - - - 0.0
19/03:30pm 15.1 - 0.2 36 6.4 - - - - - - - 0.0
19/03:00pm 15.0 - 0.1 36 6.3 - - - - - - - 0.0
19/02:30pm 15.2 - 0.2 36 6.4 - - - - - - - 0.0
19/02:00pm 15.1 - 0.2 36 6.4 - - - - - - - 0.0
19/01:30pm 14.4 - 1.0 40 5.8 - - - - - - - 0.0
19/01:00pm 14.7 - 1.9 42 5.6 - - - - - - - 0.0
19/12:30pm 13.9 - 2.2 45 5.2 - - - - - - - 0.0
19/12:00pm 13.1 - 2.1 47 4.8 - - - - - - - 0.0
19/11:30am 12.9 - 2.5 49 4.6 - - - - - - - 0.0
19/11:00am 11.9 - 1.5 49 4.4 - - - - - - - 0.0
19/10:30am 10.4 - 1.2 53 3.8 - - - - - - - 0.0
19/10:00am 8.6 - 0.3 56 3.3 - - - - - - - 0.0
19/09:30am 6.4 - -0.6 61 2.7 - - - - - - - 0.0
19/09:00am 4.7 - -1.5 64 2.3 - - - - - - - 0.0
19/08:30am 0.7 - -4.3 69 1.7 - - - - - - - 0.0
19/08:00am -2.6 - -4.9 84 0.6 - - - - - - - 0.0
19/07:30am -3.5 - -5.5 86 0.5 - - - - - - - 0.0
19/07:00am -2.7 - -4.6 87 0.5 - - - - - - - 0.0
19/06:30am -1.7 - -3.7 86 0.6 - - - - - - - 0.0
19/06:00am -1.1 - -3.1 86 0.6 - - - - - - - 0.0
19/05:30am -0.7 - -2.9 85 0.7 - - - - - - - 0.0
19/05:00am -1.4 - -3.4 86 0.6 - - - - - - - 0.0
19/04:30am -1.1 - -3.5 84 0.7 - - - - - - - 0.0
19/04:00am -1.3 - -3.6 84 0.7 - - - - - - - 0.0
19/03:30am -0.6 - -3.6 80 1.0 - - - - - - - 0.0
19/03:00am 0.5 - -2.7 79 1.1 - - - - - - - 0.0
19/02:30am 1.6 - -2.2 76 1.3 - - - - - - - 0.0
19/02:00am 2.3 - -2.0 73 1.5 - - - - - - - 0.0
19/01:30am 2.8 - -1.7 72 1.6 - - - - - - - 0.0
19/01:00am 2.4 - -2.1 72 1.6 - - - - - - - 0.0
19/12:30am 3.4 - -2.1 67 2.0 - - - - - - - 0.0
19/12:00am 4.8 - -1.4 64 2.3 - - - - - - - 0.0
 
Date/Time
EST
Temp
°C
App
Temp
°C
Dew
Point
°C
Rel
Hum
%
Delta-T
°C
Wind Press
QNH
hPa
Press
MSL
hPa
Rain since
9am
mm
Dir  Spd
km/h
Gust
km/h
Spd
kts
Gust
kts
18/11:30pm 5.7 - -0.8 63 2.5 - - - - - - - 0.0
18/11:00pm 4.1 - -1.7 66 2.1 - - - - - - - 0.0
18/10:30pm 4.7 - -1.5 64 2.3 - - - - - - - 0.0
18/10:00pm 4.9 - -1.8 62 2.4 - - - - - - - 0.0
18/09:30pm 4.9 - -2.0 61 2.5 - - - - - - - 0.0
18/09:00pm 5.8 - -1.6 59 2.7 - - - - - - - 0.0
18/08:30pm 6.3 - -1.8 56 3.0 - - - - - - - 0.0
18/08:00pm 6.9 - -1.7 54 3.2 - - - - - - - 0.0
18/07:30pm 7.2 - -1.7 53 3.3 - - - - - - - 0.0
18/07:00pm 7.8 - -1.7 51 3.6 - - - - - - - 0.0
18/06:30pm 8.7 - -1.7 48 4.0 - - - - - - - 0.0
18/06:00pm 10.4 - -1.6 43 4.7 - - - - - - - 0.0
18/05:30pm 11.9 - -0.9 41 5.2 - - - - - - - 0.0
18/05:00pm 12.6 - -1.7 37 5.7 - - - - - - - 0.0
18/04:30pm 13.0 - -1.7 36 5.9 - - - - - - - 0.0
18/04:00pm 13.4 - -1.7 35 6.1 - - - - - - - 0.0
18/03:30pm 13.3 - -2.2 34 6.2 - - - - - - - 0.0
18/03:00pm 13.2 - -1.2 37 5.8 - - - - - - - 0.0
18/02:30pm 13.2 - -1.5 36 5.9 - - - - - - - 0.0
18/02:00pm 13.1 - -0.9 38 5.7 - - - - - - - 0.0
18/01:30pm 12.5 - 0.3 43 5.1 - - - - - - - 0.0
18/01:00pm 12.3 - 0.4 44 5.0 - - - - - - - 0.0
18/12:30pm 12.2 - 0.9 46 4.8 - - - - - - - 0.0
18/12:00pm 11.9 - 1.0 47 4.6 - - - - - - - 0.0
18/11:30am 11.6 - 0.7 47 4.5 - - - - - - - 0.0
18/11:00am 11.1 - 2.4 55 3.8 - - - - - - - 0.0
18/10:30am 10.4 - 3.4 62 3.1 - - - - - - - 0.0
18/10:00am 9.3 - 3.9 69 2.4 - - - - - - - 0.0
18/09:30am 7.9 - 3.8 75 1.8 - - - - - - - 0.0
18/09:00am 6.6 - 3.4 80 1.4 - - - - - - - 0.0
18/08:30am 5.6 - 3.1 84 1.0 - - - - - - - 0.0
18/08:00am 4.5 - 2.7 88 0.7 - - - - - - - 0.0
18/07:30am 4.3 - 2.5 88 0.7 - - - - - - - 0.0
18/07:00am 3.9 - 2.1 88 0.7 - - - - - - - 0.0
18/06:30am 4.0 - 1.9 86 0.8 - - - - - - - 0.0
18/06:00am 4.0 - 1.7 85 0.9 - - - - - - - 0.0
18/05:30am 4.4 - 1.6 82 1.1 - - - - - - - 0.0
18/05:00am 4.4 - 1.3 80 1.2 - - - - - - - 0.0
18/04:30am 5.2 - 1.5 77 1.5 - - - - - - - 0.0
18/04:00am 5.8 - 1.7 75 1.7 - - - - - - - 0.0
18/03:30am 6.2 - 1.3 71 2.0 - - - - - - - 0.0
18/03:00am 7.0 - 1.3 67 2.3 - - - - - - - 0.0
18/02:30am 7.9 - 1.5 64 2.6 - - - - - - - 0.0
18/02:00am 7.6 - 0.8 62 2.7 - - - - - - - 0.0
18/01:30am 7.8 - 0.3 59 3.0 - - - - - - - 0.0
18/01:00am 7.5 - -0.2 58 3.0 - - - - - - - 0.0
18/12:30am 7.9 - -0.3 56 3.2 - - - - - - - 0.0
18/12:00am 8.1 - -0.4 55 3.3 - - - - - - - 0.0
 
Date/Time
EST
Temp
°C
App
Temp
°C
Dew
Point
°C
Rel
Hum
%
Delta-T
°C
Wind Press
QNH
hPa
Press
MSL
hPa
Rain since
9am
mm
Dir  Spd
km/h
Gust
km/h
Spd
kts
Gust
kts
17/11:30pm 8.2 - -0.5 54 3.4 - - - - - - - 0.0
17/11:00pm 7.9 - -0.6 55 3.3 - - - - - - - 0.0
17/10:30pm 8.7 - -0.1 54 3.5 - - - - - - - 0.0
17/10:00pm 8.8 - -0.2 53 3.6 - - - - - - - 0.0
17/09:30pm 9.0 - -0.1 53 3.6 - - - - - - - 0.0
17/09:00pm 9.7 - 0.3 52 3.8 - - - - - - - 0.0
17/08:30pm 9.9 - 0.3 51 3.9 - - - - - - - 0.0
17/08:00pm 10.6 - 0.6 50 4.1 - - - - - - - 0.0
17/07:30pm 11.1 - 0.5 48 4.4 - - - - - - - 0.0
17/07:00pm 12.2 - 0.9 46 4.8 - - - - - - - 0.0
17/06:30pm 12.3 - 0.7 45 4.9 - - - - - - - 0.0
17/06:00pm 13.3 - 1.3 44 5.2 - - - - - - - 0.0
17/05:30pm 14.1 - 1.1 41 5.6 - - - - - - - 0.0
17/05:00pm 14.5 - 1.4 41 5.7 - - - - - - - 0.0
17/04:30pm 14.5 - 1.4 41 5.7 - - - - - - - 0.0
17/04:00pm 14.6 - 1.8 42 5.6 - - - - - - - 0.0

Other Formats:

Comma delimited format used in spreadsheet applications
http://www.bom.gov.au/fwo/IDN60801/IDN60801.94796.axf

JavaScript Object Notation format (JSON) in row-major order
http://www.bom.gov.au/fwo/IDN60801/IDN60801.94796.json